createdAt,value
2023-04-18T00:00:00.270Z,22.8
2023-04-18T00:05:01.469Z,22.8
2023-04-18T00:10:01.093Z,22.9
2023-04-18T00:15:01.015Z,22.9
2023-04-18T00:20:01.036Z,22.8
2023-04-18T00:25:00.338Z,22.8
2023-04-18T00:30:01.015Z,22.8
2023-04-18T00:35:01.250Z,22.7
2023-04-18T00:40:02.208Z,22.8
2023-04-18T00:45:01.231Z,22.7
2023-04-18T00:50:01.519Z,22.7
2023-04-18T00:55:01.237Z,22.7
2023-04-18T01:00:01.274Z,22.7
2023-04-18T01:05:01.054Z,22.7
2023-04-18T01:10:00.959Z,22.7
2023-04-18T01:15:00.268Z,22.7
2023-04-18T01:20:01.311Z,22.7
2023-04-18T01:25:01.070Z,22.7
2023-04-18T01:30:01.216Z,22.6
2023-04-18T01:35:01.173Z,22.7
2023-04-18T01:40:03.551Z,22.6
2023-04-18T01:45:01.320Z,22.6
2023-04-18T01:50:01.238Z,22.6
2023-04-18T01:55:01.243Z,22.6
2023-04-18T02:00:00.989Z,22.6
2023-04-18T02:05:01.509Z,22.5
2023-04-18T02:10:01.124Z,22.5
2023-04-18T02:15:01.035Z,22.5
2023-04-18T02:20:01.316Z,22.5
2023-04-18T02:25:00.944Z,22.5
2023-04-18T02:30:01.311Z,22.5
2023-04-18T02:35:01.613Z,22.5
2023-04-18T02:40:01.396Z,22.5
2023-04-18T02:45:01.179Z,22.5
2023-04-18T02:50:01.021Z,22.5
2023-04-18T02:55:01.525Z,22.5
2023-04-18T03:05:01.113Z,22.5
2023-04-18T03:10:00.262Z,22.5
2023-04-18T03:15:01.059Z,22.5
2023-04-18T03:20:00.951Z,22.5
2023-04-18T03:25:00.843Z,22.5
2023-04-18T03:30:01.197Z,22.5
2023-04-18T03:35:00.778Z,22.5
2023-04-18T03:40:01.565Z,22.5
2023-04-18T03:45:01.498Z,22.5
2023-04-18T03:50:00.873Z,22.5
2023-04-18T03:55:00.258Z,22.5
2023-04-18T04:00:01.037Z,22.5
2023-04-18T04:05:01.593Z,22.5
2023-04-18T04:10:01.230Z,22.5
2023-04-18T04:15:01.034Z,22.5
2023-04-18T04:20:00.903Z,22.4
2023-04-18T04:25:01.219Z,22.5
2023-04-18T04:30:01.444Z,22.5
2023-04-18T04:35:01.490Z,22.4
2023-04-18T04:40:01.043Z,22.5
2023-04-18T04:45:01.254Z,22.5
2023-04-18T04:50:01.087Z,22.5
2023-04-18T04:55:00.754Z,22.5
2023-04-18T05:00:00.995Z,22.5
2023-04-18T05:05:01.276Z,22.4
2023-04-18T05:10:01.016Z,22.5
2023-04-18T05:15:01.492Z,22.5
2023-04-18T05:20:00.927Z,22.5
2023-04-18T05:25:00.762Z,22.5
2023-04-18T05:30:01.538Z,22.5
2023-04-18T05:35:00.798Z,22.5
2023-04-18T05:40:01.248Z,22.5
2023-04-18T05:45:01.082Z,22.5
2023-04-18T05:50:00.767Z,22.5
2023-04-18T05:55:00.790Z,22.5
2023-04-18T06:00:02.213Z,22.6
2023-04-18T06:05:01.670Z,22.6
2023-04-18T06:10:01.008Z,22.6
2023-04-18T06:15:00.849Z,22.5
2023-04-18T06:20:00.867Z,22.6
2023-04-18T06:25:00.950Z,22.6
2023-04-18T06:30:01.252Z,22.5
2023-04-18T06:35:00.594Z,22.5
2023-04-18T06:40:01.254Z,22.5
2023-04-18T06:45:00.261Z,22.6
2023-04-18T06:50:01.090Z,22.6
2023-04-18T06:55:01.494Z,22.5
2023-04-18T07:00:00.858Z,22.5
2023-04-18T07:05:00.864Z,22.5
2023-04-18T07:10:00.276Z,22.6
2023-04-18T07:15:01.117Z,22.6
2023-04-18T07:20:01.135Z,22.6
2023-04-18T07:25:01.190Z,22.6
2023-04-18T07:30:00.803Z,22.6
2023-04-18T07:35:00.766Z,22.6
2023-04-18T07:40:00.913Z,22.6
2023-04-18T07:45:00.810Z,22.6
2023-04-18T07:50:01.028Z,22.6
2023-04-18T07:55:00.794Z,22.6
2023-04-18T08:00:02.177Z,22.6
2023-04-18T08:05:03.550Z,22.6
2023-04-18T08:10:01.289Z,22.6
2023-04-18T08:15:00.750Z,22.6
2023-04-18T08:20:01.159Z,22.5
2023-04-18T08:25:04.731Z,22.5
2023-04-18T08:30:01.619Z,22.6
2023-04-18T08:35:00.924Z,22.6
2023-04-18T08:40:01.461Z,22.6
2023-04-18T08:45:01.038Z,22.6
2023-04-18T08:50:00.916Z,22.5
2023-04-18T08:55:00.866Z,22.6
2023-04-18T09:00:00.804Z,22.6
2023-04-18T09:05:00.794Z,22.6
2023-04-18T09:10:00.857Z,22.6
2023-04-18T09:15:00.833Z,22.6
2023-04-18T09:20:02.341Z,22.6
2023-04-18T09:25:02.220Z,22.6
2023-04-18T09:30:00.838Z,22.6
2023-04-18T09:35:03.520Z,22.6
2023-04-18T09:45:00.952Z,22.6
2023-04-18T09:50:00.854Z,22.7
2023-04-18T09:55:01.523Z,22.6
2023-04-18T10:05:04.129Z,22.6
2023-04-18T10:10:00.861Z,22.6
2023-04-18T10:15:01.196Z,22.6
2023-04-18T10:20:00.857Z,22.7
2023-04-18T10:25:01.266Z,22.7
2023-04-18T10:30:01.239Z,22.7
2023-04-18T10:35:00.766Z,22.7
2023-04-18T10:40:04.854Z,22.7
2023-04-18T10:45:01.285Z,22.7
2023-04-18T10:50:01.414Z,22.7
2023-04-18T10:55:00.825Z,22.7
2023-04-18T11:00:00.773Z,22.7
2023-04-18T11:05:01.064Z,22.7
2023-04-18T11:10:01.368Z,22.7
2023-04-18T11:15:01.311Z,22.8
2023-04-18T11:25:01.190Z,22.8
2023-04-18T11:30:00.781Z,22.8
2023-04-18T11:35:01.014Z,22.8
2023-04-18T11:45:00.793Z,22.8
2023-04-18T11:50:01.485Z,22.8
2023-04-18T11:55:01.623Z,22.8
2023-04-18T12:05:00.978Z,22.8
2023-04-18T12:10:01.042Z,22.8
2023-04-18T12:15:00.841Z,22.8
2023-04-18T12:20:01.095Z,22.8
2023-04-18T12:25:00.842Z,22.8
2023-04-18T12:30:02.823Z,22.8
2023-04-18T12:35:00.837Z,22.8
2023-04-18T12:45:01.032Z,22.8
2023-04-18T12:50:01.302Z,22.8
2023-04-18T12:55:00.750Z,22.8
2023-04-18T13:05:01.184Z,22.9
2023-04-18T13:10:00.807Z,22.9
2023-04-18T13:15:00.992Z,22.8
2023-04-18T13:20:00.851Z,22.9
2023-04-18T13:25:01.059Z,22.9
2023-04-18T13:30:01.215Z,22.9
2023-04-18T13:35:00.857Z,22.9
2023-04-18T13:45:00.980Z,22.9
2023-04-18T13:50:00.781Z,22.9
2023-04-18T13:55:00.798Z,22.9
2023-04-18T14:00:01.552Z,22.9
2023-04-18T14:05:01.227Z,22.9
2023-04-18T14:10:01.050Z,22.9
2023-04-18T14:15:01.449Z,22.9
2023-04-18T14:20:01.009Z,22.9
2023-04-18T14:25:01.486Z,22.9
2023-04-18T14:30:01.165Z,22.9
2023-04-18T14:35:01.002Z,22.9
2023-04-18T14:40:01.281Z,22.9
2023-04-18T14:45:01.452Z,22.9
2023-04-18T14:50:02.511Z,22.9
2023-04-18T14:55:01.213Z,22.9
2023-04-18T15:00:00.977Z,22.9
2023-04-18T15:05:02.005Z,22.9
2023-04-18T15:10:01.005Z,22.9
2023-04-18T15:15:01.318Z,22.9
2023-04-18T15:20:01.079Z,22.9
2023-04-18T15:25:01.498Z,22.9
2023-04-18T15:30:01.220Z,22.9
2023-04-18T15:35:01.051Z,22.9
2023-04-18T15:40:01.521Z,22.9
2023-04-18T15:45:00.988Z,22.8
2023-04-18T15:50:01.682Z,22.8
2023-04-18T15:55:01.281Z,22.8
2023-04-18T16:00:01.057Z,22.8
2023-04-18T16:05:01.238Z,22.8
2023-04-18T16:10:01.070Z,22.8
2023-04-18T16:15:01.962Z,22.8
2023-04-18T16:20:01.315Z,22.8
2023-04-18T16:25:01.340Z,22.8
2023-04-18T16:30:01.244Z,22.9
2023-04-18T16:35:01.027Z,22.9
2023-04-18T16:40:01.958Z,22.9
2023-04-18T16:45:03.836Z,22.9
2023-04-18T16:50:02.282Z,22.9
2023-04-18T16:55:01.527Z,22.9
2023-04-18T17:00:02.451Z,22.9
2023-04-18T17:05:01.747Z,22.8
2023-04-18T17:10:01.023Z,22.8
2023-04-18T17:15:01.813Z,22.8
2023-04-18T17:20:01.218Z,22.8
2023-04-18T17:25:01.555Z,22.8
2023-04-18T17:30:01.610Z,22.8
2023-04-18T17:35:01.268Z,22.8
2023-04-18T17:40:01.373Z,22.9
2023-04-18T17:45:01.060Z,22.9
2023-04-18T17:50:01.202Z,22.9
2023-04-18T17:55:02.049Z,22.9
2023-04-18T18:00:04.382Z,22.9
2023-04-18T18:05:02.157Z,22.9
2023-04-18T18:10:02.070Z,22.9
2023-04-18T18:15:02.877Z,22.9
2023-04-18T18:20:02.243Z,22.9
2023-04-18T18:25:02.894Z,22.9
2023-04-18T18:30:01.603Z,22.9
2023-04-18T18:35:01.528Z,22.9
2023-04-18T18:40:01.463Z,22.9
2023-04-18T18:45:01.031Z,22.9
2023-04-18T18:50:01.373Z,22.9
2023-04-18T18:55:01.548Z,22.9
2023-04-18T19:00:02.230Z,22.9
2023-04-18T19:05:01.328Z,22.9
2023-04-18T19:10:02.107Z,22.9
2023-04-18T19:15:00.281Z,22.9
2023-04-18T19:20:01.097Z,22.9
2023-04-18T19:25:01.086Z,23.0
2023-04-18T19:30:01.021Z,23.0
2023-04-18T19:35:01.876Z,23.0
2023-04-18T19:40:01.564Z,23.0
2023-04-18T19:45:02.871Z,23.0
2023-04-18T19:50:02.505Z,23.0
2023-04-18T19:55:01.999Z,23.0
2023-04-18T20:00:01.137Z,23.0
2023-04-18T20:05:01.575Z,23.0
2023-04-18T20:10:02.217Z,23.0
2023-04-18T20:15:00.878Z,23.0
2023-04-18T20:20:01.659Z,23.0
2023-04-18T20:25:01.997Z,23.0
2023-04-18T20:30:02.492Z,22.9
2023-04-18T20:35:00.938Z,22.9
2023-04-18T20:40:01.623Z,22.9
2023-04-18T20:45:00.775Z,23.0
2023-04-18T20:50:00.994Z,22.9
2023-04-18T20:55:01.570Z,22.9
2023-04-18T21:00:01.113Z,22.9
2023-04-18T21:05:00.269Z,23.0
2023-04-18T21:10:01.282Z,23.0
2023-04-18T21:15:02.039Z,23.0
2023-04-18T21:25:01.029Z,23.0
2023-04-18T21:30:03.371Z,23.0
2023-04-18T21:35:01.000Z,23.0
2023-04-18T21:40:01.502Z,23.0
2023-04-18T21:45:00.994Z,23.0
2023-04-18T21:50:01.782Z,23.0
2023-04-18T21:55:01.461Z,23.0
2023-04-18T22:00:01.043Z,23.0
2023-04-18T22:05:02.428Z,23.0
2023-04-18T22:10:04.507Z,23.0
2023-04-18T22:15:01.004Z,23.0
2023-04-18T22:20:01.013Z,23.0
2023-04-18T22:25:01.240Z,23.0
2023-04-18T22:30:01.442Z,23.0
2023-04-18T22:35:01.043Z,23.0
2023-04-18T22:45:01.550Z,23.0
2023-04-18T22:50:00.994Z,23.0
2023-04-18T22:55:01.475Z,23.0
2023-04-18T23:00:01.139Z,23.0
2023-04-18T23:05:00.775Z,23.0
2023-04-18T23:10:01.029Z,23.0
2023-04-18T23:15:00.969Z,23.0
2023-04-18T23:20:01.957Z,23.0
2023-04-18T23:25:00.271Z,23.0
2023-04-18T23:30:01.514Z,23.0
2023-04-18T23:35:01.036Z,23.0
2023-04-18T23:40:02.793Z,23.0
2023-04-18T23:45:01.287Z,23.0
2023-04-18T23:50:03.796Z,23.1
2023-04-18T23:55:01.515Z,23.1
